This is the latest recevied weather packets stored in our database for station/object ED1ZAI-13. If no packets are shown the sender has not sent any weather packets the latest 10 day(s).
| Time | Temp. | Humidity | Pressure | Rain* | Wind** | Luminosity | Snow |
|---|---|---|---|---|---|---|---|
| 1777883629 | 11.67° C | 69% | 1011.3 hPa | 0 mm | - | - | - |
| 1777883030 | 11.67° C | 70% | 1011.3 hPa | 0 mm | - | - | - |
| 1777882429 | 11.67° C | 71% | 1011.3 hPa | 0 mm | - | - | - |
| 1777881829 | 11.67° C | 73% | 1011.3 hPa | 0 mm | - | - | - |
| 1777881229 | 11.67° C | 71% | 1011.3 hPa | 0 mm | - | - | - |
| 1777880629 | 12.22° C | 75% | 1011.3 hPa | 0 mm | - | - | - |
| 1777880030 | 11.67° C | 75% | 1011.3 hPa | 0 mm | - | - | - |
| 1777879430 | 11.11° C | 75% | 1011.3 hPa | 0 mm | - | - | - |
| 1777878830 | 11.11° C | 76% | 1011.3 hPa | 0 mm | - | - | - |
| 1777878229 | 11.67° C | 80% | 1011.3 hPa | 0 mm | - | - | - |
| 1777877629 | 11.11° C | 81% | 1011.3 hPa | 0 mm | - | - | - |
| 1777877029 | 10.56° C | 78% | 1011.2 hPa | 0 mm | - | - | - |
| 1777876429 | 10.56° C | 81% | 1011.2 hPa | 0 mm | - | - | - |
| 1777875828 | 10.56° C | 80% | 1011.2 hPa | 0 mm | - | - | - |
| 1777875228 | 10° C | 82% | 1011.1 hPa | 0 mm | - | - | - |
| 1777874628 | 10.56° C | 81% | 1011.1 hPa | 0 mm | - | - | - |
| 1777874029 | 10° C | 83% | 1011.1 hPa | 0 mm | - | - | - |
| 1777873415 | 10° C | 84% | 1011.2 hPa | 0 mm | - | - | - |
| 1777872815 | 8.89° C | 83% | 1011.3 hPa | 0 mm | - | - | - |
| 1777872214 | 10.56° C | 79% | 1010.7 hPa | 0 mm | - | - | - |
| 1777871614 | 10.56° C | 80% | 1010.6 hPa | 0 mm | - | - | - |
| 1777871014 | 10.56° C | 80% | 1010.7 hPa | 0 mm | - | - | - |
| 1777870415 | 10.56° C | 80% | 1010.6 hPa | 0 mm | - | - | - |
| 1777869815 | 10.56° C | 81% | 1010.6 hPa | 0 mm | - | - | - |
| 1777869214 | 10° C | 82% | 1010.7 hPa | 0 mm | - | - | - |
* Rain latest hour (hover to see other rain measurements)
** Current wind speed in m/s (hover to see current wind gust speed)